Time;durP1;ratioP1;P1;durP2;ratioP2;P2;SDS_P1;SDS_P2;PMS_P1;PMS_P2;Temp;Humidity;BMP_temperature;BMP_pressure;BME280_temperature;BME280_humidity;BME280_pressure;Samples;Min_cycle;Max_cycle;Signal;HPM_P1;HPM_P2
2022/05/18 00:01:49;;;;;;;22.33;12.52;;;;;;;28.37;37.07;101890.91;5026256;28;20176;-76
2022/05/18 00:04:14;;;;;;;23.55;13.38;;;;;;;28.60;36.73;101902.75;5018298;28;20029;-76
2022/05/18 00:06:40;;;;;;;25.15;14.88;;;;;;;28.42;37.45;101904.91;5029038;28;20116;-76
2022/05/18 00:09:05;;;;;;;20.17;13.50;;;;;;;28.42;37.03;101905.75;5028325;28;20029;-76
2022/05/18 00:11:32;;;;;;;21.42;14.45;;;;;;;28.30;37.73;101911.13;5025020;28;20495;-76
2022/05/18 00:13:58;;;;;;;22.55;14.32;;;;;;;28.53;36.56;101907.69;5029624;28;20022;-76
2022/05/18 00:16:25;;;;;;;22.15;14.13;;;;;;;28.23;37.37;101906.19;5063367;28;20017;-76
2022/05/18 00:18:52;;;;;;;21.90;13.75;;;;;;;28.23;37.23;101911.56;5029785;28;20037;-76
2022/05/18 00:21:17;;;;;;;24.33;14.48;;;;;;;28.33;37.16;101911.78;5039543;28;20045;-76
2022/05/18 00:23:44;;;;;;;20.25;13.40;;;;;;;28.03;37.65;101926.34;5034534;28;20473;-76
2022/05/18 00:26:10;;;;;;;19.83;13.90;;;;;;;28.16;37.48;101920.13;5015051;28;20040;-76
2022/05/18 00:28:35;;;;;;;19.50;14.25;;;;;;;28.24;37.68;101924.00;5027401;28;20029;-76
2022/05/18 00:31:01;;;;;;;21.80;14.68;;;;;;;28.31;37.60;101921.75;5029138;28;20020;-76
2022/05/18 00:33:27;;;;;;;21.85;14.98;;;;;;;28.16;38.00;101922.81;5014238;28;20481;-76
2022/05/18 00:35:53;;;;;;;26.38;16.83;;;;;;;28.16;38.03;101931.72;5020375;28;20025;-76
2022/05/18 00:38:18;;;;;;;25.70;16.10;;;;;;;28.12;38.12;101924.00;5024429;28;20057;-76
2022/05/18 00:40:47;;;;;;;27.80;16.60;;;;;;;28.26;37.81;101911.34;5035362;28;20028;-76
2022/05/18 00:43:36;;;;;;;26.60;17.65;;;;;;;28.25;37.85;101915.00;5013319;28;20021;-76
2022/05/18 00:46:06;;;;;;;26.60;17.85;;;;;;;28.31;37.75;101913.69;5031242;28;20065;-76
2022/05/18 00:48:32;;;;;;;24.58;15.82;;;;;;;28.33;37.12;101902.84;5032357;28;20087;-76
2022/05/18 00:51:01;;;;;;;26.63;16.80;;;;;;;28.08;37.84;101913.47;5034512;28;20034;-76
2022/05/18 00:53:31;;;;;;;23.27;15.95;;;;;;;28.11;37.86;101893.59;5029620;28;20038;-76
2022/05/18 00:56:01;;;;;;;28.52;17.55;;;;;;;28.21;37.45;101908.09;5033494;28;20025;-76
2022/05/18 00:58:33;;;;;;;25.42;17.38;;;;;;;28.03;38.13;101904.00;5029528;28;20169;-76
2022/05/18 01:00:58;;;;;;;26.10;17.13;;;;;;;28.36;37.20;101895.44;5018232;28;20021;-76
2022/05/18 01:03:28;;;;;;;24.95;16.33;;;;;;;28.44;36.73;101906.53;5033954;28;20031;-76
2022/05/18 01:06:04;;;;;;;30.42;16.50;;;;;;;28.35;37.02;101899.09;5034892;28;20156;-76
2022/05/18 01:08:36;;;;;;;27.55;16.80;;;;;;;28.35;37.04;101900.91;5032459;28;20473;-76
2022/05/18 01:11:02;;;;;;;28.23;18.08;;;;;;;28.37;37.05;101907.91;5030839;28;20026;-76
2022/05/18 01:13:28;;;;;;;26.45;17.23;;;;;;;28.52;36.75;101908.69;5049776;28;20034;-76
2022/05/18 01:15:53;;;;;;;28.27;17.70;;;;;;;28.23;37.27;101900.81;5032989;28;20101;-75
2022/05/18 01:18:19;;;;;;;27.70;16.38;;;;;;;28.63;36.34;101897.19;5031466;28;20075;-76
2022/05/18 01:20:45;;;;;;;23.88;16.05;;;;;;;28.37;36.90;101901.66;5034484;28;20021;-76
2022/05/18 01:23:38;;;;;;;23.63;15.30;;;;;;;28.17;36.69;101906.59;5032988;28;20496;-76
2022/05/18 01:26:18;;;;;;;28.58;16.70;;;;;;;27.95;37.30;101900.94;5031669;28;20120;-76
2022/05/18 01:28:52;;;;;;;22.10;15.73;;;;;;;28.23;36.99;101897.25;5007523;28;20413;-76
2022/05/18 01:31:18;;;;;;;25.05;15.82;;;;;;;28.38;36.58;101904.25;5033355;28;20034;-75
2022/05/18 01:33:44;;;;;;;24.08;14.68;;;;;;;28.23;36.99;101900.81;5033278;28;20040;-76
2022/05/18 01:36:09;;;;;;;28.20;16.50;;;;;;;28.31;36.61;101896.72;5032374;28;20462;-76
2022/05/18 01:38:34;;;;;;;31.13;17.48;;;;;;;28.18;37.32;101896.69;5044628;28;20072;-76
2022/05/18 01:41:12;;;;;;;25.63;16.83;;;;;;;28.06;37.00;101909.16;5046127;28;20021;-76
2022/05/18 01:43:42;;;;;;;29.08;17.70;;;;;;;28.33;36.68;101894.78;5032182;28;20040;-76
2022/05/18 01:46:10;;;;;;;26.70;18.58;;;;;;;28.10;36.88;101907.97;5031944;28;20091;-76
2022/05/18 01:48:44;;;;;;;26.38;17.33;;;;;;;28.14;37.13;101900.53;5012284;28;20478;-76
2022/05/18 01:51:13;;;;;;;29.60;17.45;;;;;;;27.24;38.99;101907.25;5030401;28;20041;-76
2022/05/18 01:53:39;;;;;;;26.92;18.73;;;;;;;27.15;39.14;101902.44;5031035;28;20140;-76
2022/05/18 01:56:07;;;;;;;25.75;18.17;;;;;;;27.33;39.32;101899.56;5048900;28;20113;-76
2022/05/18 01:58:32;;;;;;;32.53;19.73;;;;;;;27.07;39.53;101904.75;5032110;28;20040;-75
2022/05/18 02:00:57;;;;;;;29.75;20.42;;;;;;;27.44;39.11;101897.06;5023647;28;20022;-76
2022/05/18 02:03:23;;;;;;;30.13;19.90;;;;;;;26.40;40.78;101905.25;5031660;28;20049;-76
2022/05/18 02:05:51;;;;;;;28.45;19.48;;;;;;;26.63;40.75;101900.31;5032607;28;20029;-76
2022/05/18 02:08:16;;;;;;;32.63;19.42;;;;;;;26.78;39.74;101896.72;5033052;28;20111;-76
2022/05/18 02:10:43;;;;;;;33.78;20.70;;;;;;;27.46;38.57;101889.75;5032646;28;20496;-76
2022/05/18 02:13:08;;;;;;;27.25;19.05;;;;;;;27.45;38.95;101892.53;5006657;28;20041;-76
2022/05/18 02:15:34;;;;;;;29.80;18.77;;;;;;;26.45;41.13;101887.09;5052994;28;20031;-76
2022/05/18 02:18:00;;;;;;;26.38;19.30;;;;;;;27.48;39.01;101881.59;5062148;28;20037;-76
2022/05/18 02:20:25;;;;;;;33.15;20.33;;;;;;;27.22;39.46;101886.81;5031092;28;20400;-76
2022/05/18 02:22:51;;;;;;;28.17;17.95;;;;;;;27.31;39.00;101877.31;5043543;28;20242;-76
2022/05/18 02:25:18;;;;;;;33.30;20.85;;;;;;;27.40;38.56;101871.38;5012027;28;20045;-76
2022/05/18 02:27:43;;;;;;;27.25;19.13;;;;;;;27.42;38.76;101877.50;5016864;28;20396;-76
2022/05/18 02:30:09;;;;;;;26.60;18.73;;;;;;;27.19;39.23;101882.50;5031743;28;20021;-76
2022/05/18 02:32:35;;;;;;;30.10;18.35;;;;;;;27.54;38.41;101887.44;5030721;28;20444;-76
2022/05/18 02:35:00;;;;;;;27.52;19.55;;;;;;;27.35;38.90;101892.25;5030766;28;20025;-75
2022/05/18 02:37:26;;;;;;;29.90;19.77;;;;;;;27.76;37.93;101894.09;5032081;28;20108;-76
2022/05/18 02:39:52;;;;;;;28.95;18.15;;;;;;;28.13;37.33;101901.53;5030709;28;20036;-76
2022/05/18 02:42:17;;;;;;;25.85;18.92;;;;;;;27.63;38.15;101902.09;5033959;28;20091;-77
2022/05/18 02:44:43;;;;;;;31.88;18.70;;;;;;;27.99;37.66;101913.19;5014344;28;20025;-76
2022/05/18 02:47:08;;;;;;;25.75;17.48;;;;;;;28.26;36.99;101900.59;5031671;28;20080;-76
2022/05/18 02:49:34;;;;;;;30.95;18.60;;;;;;;27.52;37.78;101896.53;5026457;28;20442;-76
2022/05/18 02:51:59;;;;;;;36.40;18.55;;;;;;;28.01;37.40;101905.91;5031448;28;20033;-76
2022/05/18 02:57:10;;;;;;;29.25;18.10;;;;;;;27.69;37.82;101911.56;5031873;28;20095;-76
2022/05/18 02:59:36;;;;;;;28.35;18.38;;;;;;;27.97;37.66;101898.97;5028314;28;20121;-74
2022/05/18 03:02:01;;;;;;;29.40;17.90;;;;;;;28.19;36.90;101904.66;5029135;28;20033;-76
2022/05/18 03:04:29;;;;;;;28.80;19.02;;;;;;;27.80;37.19;101919.78;5029975;28;20062;-76
2022/05/18 03:06:55;;;;;;;33.03;19.27;;;;;;;27.65;37.73;101910.91;5031823;28;20022;-76
2022/05/18 03:09:21;;;;;;;30.65;18.65;;;;;;;27.68;37.56;101921.44;5062928;28;20464;-76
2022/05/18 03:11:46;;;;;;;30.52;18.67;;;;;;;27.36;38.12;101915.50;5030737;28;20068;-76
2022/05/18 03:14:12;;;;;;;29.48;19.23;;;;;;;26.89;39.25;101929.09;5032557;28;20127;-76
2022/05/18 03:16:39;;;;;;;33.30;19.85;;;;;;;26.91;39.05;101927.19;5016180;28;20090;-75
2022/05/18 03:19:04;;;;;;;33.78;19.88;;;;;;;25.69;41.53;101936.13;5026734;28;20044;-77
2022/05/18 03:24:14;;;;;;;35.95;19.33;;;;;;;25.60;42.94;101952.72;5031075;28;20123;-76
2022/05/18 03:26:39;;;;;;;30.42;19.58;;;;;;;25.53;43.12;101958.41;5029860;28;20041;-76
2022/05/18 03:29:04;;;;;;;35.67;21.38;;;;;;;26.02;41.83;101959.28;5029874;28;20033;-76
2022/05/18 03:31:30;;;;;;;35.90;22.23;;;;;;;25.91;42.45;101952.69;5016570;28;20464;-75
2022/05/18 03:33:55;;;;;;;38.83;22.10;;;;;;;25.93;42.56;101947.25;5010678;28;20501;-75
2022/05/18 03:36:22;;;;;;;38.42;22.02;;;;;;;25.66;42.99;101958.56;5010898;28;20032;-75
2022/05/18 03:38:48;;;;;;;35.83;23.20;;;;;;;26.09;42.49;101955.31;5018467;28;20040;-75
2022/05/18 03:41:16;;;;;;;40.10;20.33;;;;;;;26.84;40.75;101957.16;5029460;28;20036;-76
2022/05/18 03:43:42;;;;;;;38.65;21.30;;;;;;;26.45;41.47;101955.88;5022493;28;20041;-68
2022/05/18 03:46:07;;;;;;;35.78;21.23;;;;;;;26.93;40.49;101956.59;5020313;28;20504;-68
2022/05/18 03:48:33;;;;;;;35.78;21.45;;;;;;;27.40;39.47;101960.81;5028681;28;20039;-68
2022/05/18 03:51:02;;;;;;;39.92;21.17;;;;;;;27.11;40.11;101965.31;5028404;28;20021;-68
2022/05/18 03:53:28;;;;;;;36.72;20.77;;;;;;;27.12;40.14;101967.03;5011348;28;20026;-68
2022/05/18 03:55:54;;;;;;;28.15;18.70;;;;;;;27.25;39.83;101957.25;5010310;28;20084;-68
2022/05/18 03:58:19;;;;;;;30.80;18.70;;;;;;;27.27;39.88;101970.56;5010628;28;20041;-68
2022/05/18 04:00:47;;;;;;;33.20;20.65;;;;;;;27.57;39.23;101962.44;5028838;28;20033;-68
2022/05/18 04:03:14;;;;;;;33.70;20.58;;;;;;;27.31;39.47;101968.56;5062133;28;20396;-68
2022/05/18 04:05:40;;;;;;;31.10;19.65;;;;;;;27.35;39.97;101956.66;5044372;28;20037;-68
2022/05/18 04:08:08;;;;;;;34.00;21.40;;;;;;;27.71;39.23;101957.97;5029505;28;20481;-68
2022/05/18 04:10:34;;;;;;;33.17;19.92;;;;;;;28.04;38.78;101954.06;5028259;28;20029;-68
2022/05/18 04:12:59;;;;;;;33.38;19.33;;;;;;;27.81;38.74;101959.09;5058880;28;20041;-68
2022/05/18 04:15:26;;;;;;;35.90;19.00;;;;;;;28.12;38.42;101957.09;5009985;28;20493;-68
2022/05/18 04:17:51;;;;;;;28.63;18.13;;;;;;;28.00;38.71;101963.28;5030090;28;20497;-68
2022/05/18 04:20:20;;;;;;;34.25;19.67;;;;;;;28.03;38.48;101965.78;5028484;28;20025;-68
2022/05/18 04:22:45;;;;;;;29.25;18.38;;;;;;;28.26;38.14;101970.47;5030557;28;20030;-68
2022/05/18 04:25:13;;;;;;;30.70;18.88;;;;;;;27.88;38.79;101975.69;5031226;28;20370;-68
2022/05/18 04:27:39;;;;;;;37.33;19.15;;;;;;;28.19;38.36;101974.53;5027240;28;20507;-68
2022/05/18 04:30:05;;;;;;;30.45;18.05;;;;;;;28.31;37.93;101972.00;5029156;28;20037;-69
2022/05/18 04:32:30;;;;;;;35.20;18.38;;;;;;;28.54;37.86;101982.03;5028687;28;20033;-68
2022/05/18 04:34:56;;;;;;;32.15;17.00;;;;;;;28.70;37.69;101968.44;5062369;28;20477;-68
2022/05/18 04:37:21;;;;;;;30.52;18.60;;;;;;;29.14;36.81;101963.59;5012720;28;20139;-68
2022/05/18 04:39:47;;;;;;;29.20;18.63;;;;;;;29.32;37.11;101972.19;5028389;28;20040;-68
2022/05/18 04:42:13;;;;;;;27.75;16.45;;;;;;;29.70;35.94;101978.44;5030757;28;20064;-68
2022/05/18 04:44:40;;;;;;;28.50;17.08;;;;;;;29.92;35.15;101988.53;5028335;28;20508;-69
2022/05/18 04:47:06;;;;;;;26.95;15.57;;;;;;;30.01;35.59;101992.38;5029462;28;20026;-68
2022/05/18 04:49:32;;;;;;;23.67;15.00;;;;;;;30.00;35.37;101990.66;5028159;28;20036;-69
2022/05/18 04:51:58;;;;;;;30.35;16.20;;;;;;;29.73;35.49;101994.38;5029061;28;20025;-69
2022/05/18 04:54:23;;;;;;;24.35;16.67;;;;;;;29.97;35.39;101996.28;5030357;28;20087;-69
2022/05/18 04:56:49;;;;;;;26.88;16.92;;;;;;;29.74;35.53;101996.09;5033072;28;20116;-69
2022/05/18 04:59:14;;;;;;;29.70;16.77;;;;;;;29.82;35.78;102004.47;5028663;28;20116;-69
2022/05/18 05:01:41;;;;;;;29.70;17.33;;;;;;;29.80;36.07;102003.75;5031491;28;20041;-69
2022/05/18 05:04:09;;;;;;;26.30;17.17;;;;;;;29.74;35.90;102001.50;5027979;28;20033;-69
2022/05/18 05:06:36;;;;;;;24.30;15.90;;;;;;;29.84;35.89;102004.34;5062321;28;20155;-69
2022/05/18 05:09:02;;;;;;;27.40;16.05;;;;;;;29.82;35.63;102009.88;5031366;28;20720;-69
2022/05/18 05:11:27;;;;;;;34.35;17.05;;;;;;;29.66;35.98;102017.34;5021074;28;20128;-69
2022/05/18 05:13:53;;;;;;;24.67;15.60;;;;;;;29.71;35.98;102007.97;5045694;28;20088;-69
2022/05/18 05:16:18;;;;;;;27.73;15.75;;;;;;;29.77;35.84;102006.63;5027067;28;20053;-69
2022/05/18 05:18:44;;;;;;;26.00;16.10;;;;;;;29.77;36.26;102007.53;5064985;28;20041;-69
2022/05/18 05:21:10;;;;;;;27.85;16.00;;;;;;;29.61;36.29;102018.53;5032403;28;20419;-69
2022/05/18 05:23:35;;;;;;;26.48;16.02;;;;;;;29.69;35.98;102023.38;5034021;28;20163;-69
2022/05/18 05:26:00;;;;;;;30.10;16.70;;;;;;;29.76;36.29;102016.56;5032729;28;20025;-69
2022/05/18 05:28:26;;;;;;;27.75;15.68;;;;;;;29.79;36.07;102015.50;5062013;28;20417;-69
2022/05/18 05:30:52;;;;;;;28.48;15.88;;;;;;;29.98;36.37;102024.91;5030618;28;20090;-69
2022/05/18 05:33:18;;;;;;;31.08;17.25;;;;;;;30.25;35.71;102025.59;5032610;28;20029;-69
2022/05/18 05:35:43;;;;;;;26.77;15.95;;;;;;;30.16;36.11;102028.97;5032947;28;20030;-69
2022/05/18 05:38:10;;;;;;;28.38;17.13;;;;;;;30.20;35.86;102034.97;5020732;28;20029;-69
2022/05/18 05:40:36;;;;;;;33.00;17.90;;;;;;;30.22;35.98;102033.88;5032338;28;20025;-69
2022/05/18 05:43:07;;;;;;;28.35;16.50;;;;;;;30.26;35.96;102032.66;5033688;28;20021;-69
2022/05/18 05:45:32;;;;;;;21.88;14.65;;;;;;;30.69;35.13;102030.41;5030818;28;20029;-69
2022/05/18 05:47:58;;;;;;;24.02;15.10;;;;;;;30.57;35.78;102035.78;5037903;28;20091;-69
2022/05/18 05:50:25;;;;;;;29.20;16.25;;;;;;;30.35;36.48;102032.94;5031468;28;20080;-69
2022/05/18 05:52:50;;;;;;;26.38;15.18;;;;;;;30.31;36.66;102036.84;5031447;28;20512;-69
2022/05/18 05:55:15;;;;;;;25.35;15.32;;;;;;;30.73;36.06;102042.69;5032112;28;20025;-69
2022/05/18 05:57:41;;;;;;;25.13;13.95;;;;;;;30.23;37.23;102041.00;5032486;28;20518;-69
2022/05/18 06:00:07;;;;;;;19.63;11.73;;;;;;;30.93;35.59;102038.44;5031211;28;20392;-69
2022/05/18 06:02:33;;;;;;;21.00;11.77;;;;;;;30.06;37.04;102055.75;5032350;28;20049;-70
2022/05/18 06:04:58;;;;;;;19.90;11.45;;;;;;;30.57;36.35;102053.78;5020014;28;20363;-69
2022/05/18 06:07:24;;;;;;;23.45;11.05;;;;;;;30.17;36.89;102057.66;5019977;28;20109;-69
2022/05/18 06:09:49;;;;;;;21.20;10.85;;;;;;;30.95;35.40;102058.06;5031240;28;20039;-68
2022/05/18 06:12:15;;;;;;;16.63;10.38;;;;;;;30.35;36.48;102068.88;5033005;28;20473;-69
2022/05/18 06:14:48;;;;;;;19.35;10.63;;;;;;;29.99;37.29;102080.56;5053141;28;20467;-69
2022/05/18 06:17:13;;;;;;;16.85;10.48;;;;;;;29.43;38.52;102081.81;5061945;28;20025;-69
2022/05/18 06:19:38;;;;;;;19.00;10.00;;;;;;;30.25;37.44;102079.50;5028518;28;20381;-69
2022/05/18 06:22:04;;;;;;;19.58;11.18;;;;;;;29.54;38.96;102090.00;5031790;28;20457;-69
2022/05/18 06:24:29;;;;;;;17.60;9.50;;;;;;;29.59;39.13;102092.34;5011772;28;20564;-69
2022/05/18 06:26:57;;;;;;;15.52;8.77;;;;;;;30.54;37.48;102091.78;5030534;28;20524;-69
2022/05/18 06:29:22;;;;;;;10.82;6.85;;;;;;;30.48;37.84;102090.41;5030358;28;20030;-68
2022/05/18 06:31:47;;;;;;;13.65;6.25;;;;;;;30.79;37.01;102085.41;5028873;28;20076;-68
2022/05/18 06:34:13;;;;;;;9.45;4.80;;;;;;;30.43;37.08;102095.25;5030611;28;20508;-68
2022/05/18 06:36:38;;;;;;;9.85;5.07;;;;;;;31.75;35.34;102094.16;5034778;28;20456;-68
2022/05/18 06:39:04;;;;;;;6.85;4.68;;;;;;;32.14;33.83;102100.88;5036608;28;20032;-68
2022/05/18 06:41:31;;;;;;;11.25;5.07;;;;;;;31.67;33.97;102112.81;5045761;28;20030;-68
2022/05/18 06:44:00;;;;;;;12.57;4.85;;;;;;;31.08;35.16;102114.72;5031074;28;20036;-68
2022/05/18 06:46:27;;;;;;;14.80;5.75;;;;;;;30.92;34.54;102120.38;5032158;28;20026;-68
2022/05/18 06:48:55;;;;;;;10.43;4.78;;;;;;;31.80;33.77;102118.97;5030227;28;20033;-68
2022/05/18 06:51:23;;;;;;;8.57;4.97;;;;;;;31.19;34.98;102130.03;5024812;28;20397;-68
2022/05/18 06:53:51;;;;;;;11.63;5.75;;;;;;;30.61;35.71;102126.28;5031764;28;20208;-68
2022/05/18 06:56:19;;;;;;;8.15;4.93;;;;;;;32.01;33.36;102126.31;5031560;28;20163;-68
2022/05/18 06:58:46;;;;;;;13.60;5.40;;;;;;;30.71;35.57;102126.44;5030664;28;20029;-68
2022/05/18 07:01:12;;;;;;;10.55;5.45;;;;;;;31.22;35.03;102127.13;5029112;28;20501;-68
2022/05/18 07:03:37;;;;;;;7.85;4.53;;;;;;;30.25;36.14;102130.72;5010934;28;20068;-68
2022/05/18 07:06:04;;;;;;;11.10;5.10;;;;;;;32.42;33.36;102127.47;5059613;28;20034;-68
2022/05/18 07:08:30;;;;;;;6.22;3.97;;;;;;;31.96;33.13;102130.25;5030114;28;20029;-68
2022/05/18 07:10:55;;;;;;;9.35;4.93;;;;;;;32.78;32.43;102136.22;5061352;28;20492;-69
2022/05/18 07:13:21;;;;;;;5.47;3.90;;;;;;;34.28;30.25;102140.31;5027138;28;20025;-69
2022/05/18 07:15:46;;;;;;;9.98;4.47;;;;;;;35.23;28.15;102132.47;5059031;28;20607;-68
2022/05/18 07:18:12;;;;;;;6.65;4.10;;;;;;;35.11;27.63;102133.63;5063924;28;20544;-69
2022/05/18 07:20:38;;;;;;;7.57;3.60;;;;;;;35.85;26.82;102134.72;5063413;28;20030;-68
2022/05/18 07:23:04;;;;;;;6.90;3.70;;;;;;;35.98;26.77;102137.06;5028965;28;20022;-68
2022/05/18 07:25:30;;;;;;;5.72;3.70;;;;;;;37.50;25.07;102133.50;5027288;28;20454;-69
2022/05/18 07:27:55;;;;;;;6.97;3.85;;;;;;;36.98;24.99;102146.06;4974905;28;20025;-68
2022/05/18 07:30:20;;;;;;;6.25;3.47;;;;;;;37.44;25.22;102131.41;5028526;28;20032;-68
2022/05/18 07:32:46;;;;;;;8.35;4.30;;;;;;;36.25;26.03;102148.94;5015555;28;20541;-68
2022/05/18 07:35:11;;;;;;;9.73;3.55;;;;;;;36.51;26.44;102138.19;5029356;28;20029;-68
2022/05/18 07:37:37;;;;;;;5.25;3.83;;;;;;;38.79;22.58;102145.16;5023768;28;20176;-69
2022/05/18 07:40:03;;;;;;;7.63;4.05;;;;;;;39.63;22.21;102153.06;5027792;28;20037;-68
2022/05/18 07:42:28;;;;;;;7.55;4.00;;;;;;;37.83;23.34;102155.50;5025050;28;20026;-69
2022/05/18 07:44:53;;;;;;;6.88;3.78;;;;;;;36.60;24.93;102167.19;5058459;28;20167;-69
2022/05/18 07:47:20;;;;;;;11.15;4.18;;;;;;;35.45;26.15;102168.47;5031430;28;20053;-68
2022/05/18 07:49:45;;;;;;;7.20;3.97;;;;;;;34.26;27.37;102171.28;5030089;28;20112;-68
2022/05/18 07:52:11;;;;;;;7.43;4.47;;;;;;;35.74;26.82;102170.25;5030752;28;20545;-68
2022/05/18 07:54:37;;;;;;;5.10;3.85;;;;;;;36.68;25.09;102172.72;5029310;28;20520;-69
2022/05/18 07:57:07;;;;;;;9.50;4.25;;;;;;;34.98;27.03;102183.69;5028312;28;20056;-68
2022/05/18 07:59:33;;;;;;;8.52;4.28;;;;;;;37.01;24.81;102173.03;5029028;28;20040;-68
2022/05/18 08:01:58;;;;;;;7.93;4.47;;;;;;;36.81;25.11;102172.34;5030128;28;20021;-69
2022/05/18 08:04:23;;;;;;;9.70;4.63;;;;;;;36.43;25.10;102184.38;5031457;28;20022;-69
2022/05/18 08:06:49;;;;;;;11.77;4.32;;;;;;;37.43;24.52;102182.34;5027307;28;20201;-68
2022/05/18 08:09:15;;;;;;;9.32;4.22;;;;;;;39.21;22.92;102186.97;5031147;28;20074;-68
2022/05/18 08:17:08;;;;;;;8.68;4.13;;;;;;;38.83;22.47;102202.00;5031078;28;20068;-69
2022/05/18 08:19:34;;;;;;;7.25;4.68;;;;;;;37.47;24.14;102204.72;5028185;28;20486;-68
2022/05/18 08:21:59;;;;;;;6.75;4.25;;;;;;;40.47;20.32;102204.47;5029993;28;20033;-69
2022/05/18 08:24:25;;;;;;;11.25;5.30;;;;;;;37.75;23.88;102207.25;5030818;28;20068;-69
2022/05/18 08:26:50;;;;;;;10.63;5.63;;;;;;;38.63;23.06;102206.91;5030190;28;20045;-69
2022/05/18 08:29:15;;;;;;;11.27;5.82;;;;;;;36.88;24.24;102216.16;5025238;28;20025;-68
2022/05/18 08:31:41;;;;;;;10.88;5.35;;;;;;;38.41;23.06;102213.00;5026930;28;20049;-68
2022/05/18 08:34:06;;;;;;;9.93;5.82;;;;;;;37.26;23.79;102224.09;5010882;28;20029;-68
2022/05/18 08:36:32;;;;;;;11.15;5.65;;;;;;;37.39;24.24;102213.69;5011124;28;20026;-68
2022/05/18 08:38:58;;;;;;;9.40;5.30;;;;;;;38.98;22.27;102204.03;5026599;28;20030;-70
2022/05/18 08:41:27;;;;;;;10.43;5.22;;;;;;;39.70;21.84;102204.13;5030379;28;20033;-69
2022/05/18 08:43:56;;;;;;;11.98;5.40;;;;;;;38.08;23.23;102221.06;5066140;28;20037;-68
2022/05/18 08:46:50;;;;;;;11.18;5.80;;;;;;;39.03;22.39;102218.91;5034676;28;20033;-69
2022/05/18 08:49:39;;;;;;;14.18;6.18;;;;;;;40.47;22.01;102216.28;5033581;28;20108;-69
2022/05/18 08:52:37;;;;;;;14.95;6.72;;;;;;;41.61;19.07;102220.16;5034968;28;20072;-69
2022/05/18 08:55:23;;;;;;;9.55;6.13;;;;;;;42.31;18.58;102224.25;5034048;28;20048;-69
2022/05/18 08:57:49;;;;;;;9.77;5.95;;;;;;;40.79;19.44;102232.69;5034450;28;20108;-69
2022/05/18 09:00:24;;;;;;;11.55;6.25;;;;;;;41.37;19.03;102233.94;5032805;28;20032;-69
2022/05/18 09:03:16;;;;;;;10.95;6.35;;;;;;;41.06;19.18;102238.69;5031679;28;20293;-69
2022/05/18 09:05:54;;;;;;;15.73;6.85;;;;;;;41.62;18.78;102235.56;5033700;28;20048;-69
2022/05/18 09:08:24;;;;;;;12.95;7.65;;;;;;;42.92;18.49;102235.88;5033773;28;20143;-69
2022/05/18 09:10:52;;;;;;;10.00;7.38;;;;;;;40.41;19.91;102227.97;5030116;28;20779;-69
2022/05/18 09:13:17;;;;;;;12.10;7.28;;;;;;;41.19;19.67;102230.66;5032822;28;20063;-69
2022/05/18 09:16:21;;;;;;;11.43;7.05;;;;;;;42.50;18.48;102232.94;5028783;28;20073;-69
2022/05/18 09:19:06;;;;;;;11.63;6.70;;;;;;;42.17;18.89;102238.88;5014177;28;20469;-69
2022/05/18 09:21:44;;;;;;;10.75;7.20;;;;;;;42.07;18.88;102238.31;5032426;28;20033;-69
2022/05/18 09:24:36;;;;;;;11.35;6.80;;;;;;;43.23;17.58;102241.03;5033106;28;20490;-69
2022/05/18 09:27:02;;;;;;;12.93;7.10;;;;;;;43.08;17.52;102234.78;5031955;28;20029;-69
2022/05/18 09:29:46;;;;;;;12.80;7.20;;;;;;;40.81;19.35;102244.34;5032025;28;20389;-69
2022/05/18 09:32:20;;;;;;;15.30;6.97;;;;;;;42.91;18.35;102232.31;5031787;28;20116;-69
2022/05/18 09:35:12;;;;;;;10.70;7.57;;;;;;;40.44;20.16;102240.44;5032016;28;20251;-69
2022/05/18 09:37:44;;;;;;;11.70;6.90;;;;;;;42.66;18.83;102243.69;5032966;28;20064;-69
2022/05/18 09:40:18;;;;;;;12.98;6.57;;;;;;;39.25;21.26;102241.13;5032582;28;20021;-69
2022/05/18 09:42:53;;;;;;;16.27;7.93;;;;;;;40.63;19.17;102247.34;5031435;28;20386;-69
2022/05/18 09:45:25;;;;;;;12.13;7.28;;;;;;;41.35;20.32;102248.84;5031848;28;20030;-69
2022/05/18 09:48:03;;;;;;;13.63;8.10;;;;;;;41.28;20.03;102240.50;5033434;28;20029;-69
2022/05/18 09:50:30;;;;;;;13.27;8.02;;;;;;;43.04;18.34;102240.63;5031665;28;20072;-69
2022/05/18 09:52:55;;;;;;;10.68;6.75;;;;;;;42.23;18.32;102240.88;5023418;28;20084;-68
2022/05/18 09:55:24;;;;;;;11.32;6.53;;;;;;;42.54;19.10;102239.75;5013635;28;20026;-69
2022/05/18 09:57:58;;;;;;;12.63;6.32;;;;;;;42.85;18.50;102244.06;5044701;28;20227;-69
2022/05/18 10:00:27;;;;;;;12.80;6.70;;;;;;;42.93;18.25;102241.19;5017122;28;20025;-69
2022/05/18 10:08:44;;;;;;;9.18;6.22;;;;;;;41.63;18.83;102243.63;5031299;28;20171;-69
2022/05/18 10:11:20;;;;;;;11.45;5.90;;;;;;;41.07;19.96;102254.06;5031324;28;20021;-68
2022/05/18 10:14:08;;;;;;;10.85;6.50;;;;;;;41.98;18.13;102246.66;5030137;28;20021;-69
2022/05/18 10:16:42;;;;;;;11.30;6.18;;;;;;;40.76;19.75;102241.28;5030679;28;20025;-69
2022/05/18 10:19:21;;;;;;;11.63;6.65;;;;;;;39.87;20.52;102247.84;5032483;28;20393;-69
2022/05/18 10:22:01;;;;;;;10.75;6.50;;;;;;;38.92;21.79;102237.53;5032797;28;20029;-69
2022/05/18 10:24:35;;;;;;;12.43;5.53;;;;;;;39.39;21.03;102244.19;5030811;28;20071;-69
2022/05/18 10:27:14;;;;;;;11.80;5.82;;;;;;;39.95;20.44;102250.56;5030118;28;20397;-69
2022/05/18 10:29:44;;;;;;;13.45;6.10;;;;;;;38.97;21.33;102251.53;5032577;28;20059;-68
2022/05/18 10:32:21;;;;;;;8.18;5.85;;;;;;;39.47;21.33;102238.72;5030633;28;20478;-69
2022/05/18 10:34:50;;;;;;;9.88;5.78;;;;;;;40.18;21.18;102233.41;5052527;28;20065;-68
2022/05/18 10:37:37;;;;;;;9.45;5.70;;;;;;;40.05;20.08;102238.59;5030775;28;20056;-69
2022/05/18 10:40:18;;;;;;;9.40;5.43;;;;;;;39.75;21.75;102250.13;5030538;28;20401;-69
2022/05/18 10:42:53;;;;;;;8.48;5.15;;;;;;;41.16;19.54;102242.84;5031345;28;20033;-70
2022/05/18 10:45:39;;;;;;;9.32;4.78;;;;;;;39.49;20.50;102244.88;5029178;28;20155;-69
2022/05/18 10:48:18;;;;;;;8.77;4.80;;;;;;;40.76;19.12;102241.28;5031698;28;20049;-69
2022/05/18 10:50:45;;;;;;;6.65;4.07;;;;;;;39.42;19.96;102238.38;5030881;28;20029;-69
2022/05/18 10:53:13;;;;;;;5.88;3.90;;;;;;;37.86;21.70;102228.81;5031052;28;20425;-68
2022/05/18 10:56:11;;;;;;;8.25;3.75;;;;;;;36.89;23.36;102231.50;5023759;28;20065;-69
2022/05/18 10:58:45;;;;;;;7.43;3.45;;;;;;;40.01;20.35;102233.44;5010351;28;20517;-69
2022/05/18 11:01:16;;;;;;;7.57;3.22;;;;;;;40.82;18.75;102235.06;5010328;28;20040;-69
2022/05/18 11:04:02;;;;;;;3.38;2.42;;;;;;;41.30;18.51;102241.19;5044070;28;20021;-69
2022/05/18 11:06:33;;;;;;;4.38;2.50;;;;;;;40.92;18.28;102243.03;5028927;28;20107;-69
2022/05/18 11:09:29;;;;;;;5.18;3.00;;;;;;;39.79;19.40;102245.16;5030071;28;20032;-69
2022/05/18 11:11:58;;;;;;;3.65;2.63;;;;;;;38.57;19.84;102245.81;5027848;28;20564;-68
2022/05/18 11:14:33;;;;;;;5.43;3.28;;;;;;;37.09;22.53;102250.38;5029089;28;20499;-68
2022/05/18 11:17:15;;;;;;;8.48;2.78;;;;;;;37.21;21.78;102253.69;5030570;28;20079;-68
2022/05/18 11:20:02;;;;;;;4.43;3.13;;;;;;;37.85;22.06;102251.63;5010623;28;20025;-68
2022/05/18 11:22:48;;;;;;;8.05;3.05;;;;;;;38.33;21.13;102249.31;5010108;28;20481;-68
2022/05/18 11:25:36;;;;;;;5.72;3.00;;;;;;;38.53;20.32;102249.91;5058730;28;20111;-68
2022/05/18 11:29:00;;;;;;;6.43;3.00;;;;;;;37.22;21.57;102245.41;5010022;28;20137;-68
2022/05/18 11:31:44;;;;;;;4.90;2.75;;;;;;;38.92;20.27;102248.44;5000223;28;20072;-70
2022/05/18 11:34:32;;;;;;;5.68;2.85;;;;;;;38.85;20.46;102242.81;5033324;28;20128;-68
2022/05/18 11:37:16;;;;;;;8.68;3.08;;;;;;;39.34;19.74;102237.38;5029664;28;20179;-68
2022/05/18 11:39:56;;;;;;;4.35;2.50;;;;;;;39.23;20.81;102236.84;5029200;28;20469;-69
2022/05/18 11:42:37;;;;;;;6.47;3.25;;;;;;;38.60;19.66;102234.53;5021966;28;20021;-69